Aviation Digital Data Service (ADDS)

Output produced by METARs form (2051 UTC 24 June 2018)
found at http://www.aviationweather.gov/adds/metars/
 
LQBK 242030Z 00000KT CAVOK 14/12 Q1018 NOSIG
TAF LQBK 241700Z 2418/2518 34005KT 9999 SCT040 TX22/2513Z TN10/2503Z 
     TEMPO 2511/2517 04010KT
       
LQMO 242030Z 01003KT 280V090 CAVOK 17/08 Q1014
TAF LQMO 241700Z 2418/2518 02007KT CAVOK TX25/2513Z TN14/2503Z 
     TEMPO 2418/2515 32012KT 
     TEMPO 2515/2518 02015G25KT
       
LQSA 242030Z VRB03KT CAVOK 12/09 Q1018 NOSIG
TAF LQSA 241700Z 2418/2518 VRB02KT CAVOK TX22/2514Z TN07/2503Z 
     PROB40 2502/2507 1200 BCFG BKN004 
     PROB30 
     TEMPO 2512/2516 30010KT
       
LQTZ 242030Z VRB01KT 9999 FEW040 12/08 Q1018
TAF LQTZ 241700Z 2418/2518 28007KT 9999 SCT040 TX21/2513Z TN08/2503Z 
     PROB40 
     TEMPO 2510/2516 02010KT